This is the latest recevied weather packets stored in our database for station/object K4AGR-13. If no packets are shown the sender has not sent any weather packets the latest 10 day(s).
| Time | Temp. | Humidity | Pressure | Rain* | Wind** | Luminosity | Snow |
|---|---|---|---|---|---|---|---|
| 1777747269 | 20° C | 64% | 1012.6 hPa | 0 mm | - | 929 W/m² | - |
| 1777746966 | 20° C | 62% | 1012.8 hPa | 0 mm | - | 1100 W/m² | - |
| 1777746662 | 19.44° C | 68% | 1012.7 hPa | 0 mm | - | 707 W/m² | - |
| 1777746357 | 18.89° C | 73% | 1012.8 hPa | 0 mm | - | 1050 W/m² | - |
| 1777746053 | 18.33° C | 73% | 1012.7 hPa | 0 mm | - | 1062 W/m² | - |
| 1777745751 | 18.33° C | 73% | 1012.9 hPa | 0 mm | - | 536 W/m² | - |
| 1777745449 | 18.33° C | 73% | 1013 hPa | 0 mm | - | 374 W/m² | - |
| 1777745146 | 18.89° C | 72% | 1012.8 hPa | 0 mm | - | 267 W/m² | - |
| 1777744838 | 18.89° C | 69% | 1012.7 hPa | 0 mm | - | 386 W/m² | - |
| 1777744537 | 18.33° C | 72% | 1012.9 hPa | 0 mm | - | 1204 W/m² | - |
| 1777744234 | 18.33° C | 74% | 1013 hPa | 0 mm | - | 355 W/m² | - |
| 1777743931 | 18.33° C | 73% | 1013 hPa | 0 mm | - | 436 W/m² | - |
| 1777743627 | 18.33° C | 72% | 1013 hPa | 0 mm | - | 1290 W/m² | - |
| 1777743325 | 17.78° C | 77% | 1013 hPa | 0 mm | - | 755 W/m² | - |
| 1777743023 | 17.78° C | 77% | 1013.1 hPa | 0 mm | - | 906 W/m² | - |
| 1777742719 | 17.22° C | 80% | 1013.3 hPa | 0 mm | - | 536 W/m² | - |
| 1777742416 | 17.22° C | 81% | 1013.1 hPa | 0 mm | - | 523 W/m² | - |
| 1777742111 | 16.67° C | 81% | 1013.2 hPa | 0 mm | - | 788 W/m² | - |
| 1777741809 | 16.67° C | 82% | 1012.8 hPa | 0 mm | - | 621 W/m² | - |
| 1777741506 | 16.67° C | 82% | 1013 hPa | 0 mm | - | 500 W/m² | - |
| 1777741202 | 16.67° C | 81% | 1013 hPa | 0 mm | - | 547 W/m² | - |
| 1777740899 | 16.67° C | 83% | 1012.9 hPa | 0 mm | - | 667 W/m² | - |
| 1777740596 | 16.11° C | 86% | 1013 hPa | 0 mm | - | 684 W/m² | - |
| 1777740292 | 16.11° C | 87% | 1013.3 hPa | 0 mm | - | 789 W/m² | - |
| 1777739989 | 15.56° C | 86% | 1012.9 hPa | 0 mm | - | 1224 W/m² | - |
* Rain latest hour (hover to see other rain measurements)
** Current wind speed in m/s (hover to see current wind gust speed)